sensor_id;sensor_type;location;lat;lon;timestamp;pressure;altitude;pressure_sealevel;temperature;humidity
38400;BME280;24180;42.676;23.320;2022-07-29T00:01:15;94876.09;;;19.36;100.00
38400;BME280;24180;42.676;23.320;2022-07-29T00:03:41;94874.88;;;19.39;100.00
38400;BME280;24180;42.676;23.320;2022-07-29T00:06:07;94874.28;;;19.37;100.00
38400;BME280;24180;42.676;23.320;2022-07-29T00:08:32;94896.16;;;19.44;100.00
38400;BME280;24180;42.676;23.320;2022-07-29T00:10:59;94898.13;;;19.42;100.00
38400;BME280;24180;42.676;23.320;2022-07-29T00:13:26;94901.00;;;19.47;100.00
38400;BME280;24180;42.676;23.320;2022-07-29T00:15:51;94914.97;;;19.47;100.00
38400;BME280;24180;42.676;23.320;2022-07-29T00:18:17;94902.66;;;19.54;100.00
38400;BME280;24180;42.676;23.320;2022-07-29T00:20:42;94917.25;;;19.57;100.00
38400;BME280;24180;42.676;23.320;2022-07-29T00:23:08;94905.72;;;19.58;100.00
38400;BME280;24180;42.676;23.320;2022-07-29T00:25:33;94905.91;;;19.56;100.00
38400;BME280;24180;42.676;23.320;2022-07-29T00:27:59;94897.00;;;19.51;100.00
38400;BME280;24180;42.676;23.320;2022-07-29T00:30:24;94898.84;;;19.57;100.00
38400;BME280;24180;42.676;23.320;2022-07-29T00:32:50;94885.84;;;19.42;100.00
38400;BME280;24180;42.676;23.320;2022-07-29T00:35:15;94895.34;;;19.43;100.00
38400;BME280;24180;42.676;23.320;2022-07-29T00:37:59;94898.72;;;19.37;100.00
38400;BME280;24180;42.676;23.320;2022-07-29T00:40:25;94892.81;;;19.29;100.00
38400;BME280;24180;42.676;23.320;2022-07-29T00:42:51;94908.00;;;19.40;100.00
38400;BME280;24180;42.676;23.320;2022-07-29T00:45:17;94899.31;;;19.39;100.00
38400;BME280;24180;42.676;23.320;2022-07-29T00:47:44;94906.19;;;19.34;100.00
38400;BME280;24180;42.676;23.320;2022-07-29T00:50:11;94903.75;;;19.39;100.00
38400;BME280;24180;42.676;23.320;2022-07-29T00:52:39;94915.13;;;19.46;100.00
38400;BME280;24180;42.676;23.320;2022-07-29T00:55:07;94908.47;;;19.43;100.00
38400;BME280;24180;42.676;23.320;2022-07-29T00:57:34;94919.97;;;19.42;100.00
38400;BME280;24180;42.676;23.320;2022-07-29T01:00:00;94903.72;;;19.26;100.00
38400;BME280;24180;42.676;23.320;2022-07-29T01:02:26;94896.16;;;19.16;100.00
38400;BME280;24180;42.676;23.320;2022-07-29T01:04:52;94899.94;;;19.07;100.00
38400;BME280;24180;42.676;23.320;2022-07-29T01:07:18;94901.47;;;18.95;100.00
38400;BME280;24180;42.676;23.320;2022-07-29T01:09:45;94891.53;;;18.90;100.00
38400;BME280;24180;42.676;23.320;2022-07-29T01:12:16;94889.13;;;18.89;100.00
38400;BME280;24180;42.676;23.320;2022-07-29T01:14:43;94888.00;;;18.77;100.00
38400;BME280;24180;42.676;23.320;2022-07-29T01:17:24;94882.41;;;18.58;100.00
38400;BME280;24180;42.676;23.320;2022-07-29T01:22:42;94875.66;;;18.49;100.00
38400;BME280;24180;42.676;23.320;2022-07-29T01:28:29;94877.03;;;18.45;100.00
38400;BME280;24180;42.676;23.320;2022-07-29T01:30:53;94866.56;;;18.45;100.00
38400;BME280;24180;42.676;23.320;2022-07-29T01:33:20;94856.63;;;18.41;100.00
38400;BME280;24180;42.676;23.320;2022-07-29T01:36:11;94852.63;;;18.45;100.00
38400;BME280;24180;42.676;23.320;2022-07-29T01:38:41;94851.59;;;18.46;100.00
38400;BME280;24180;42.676;23.320;2022-07-29T01:41:15;94848.56;;;18.42;100.00
38400;BME280;24180;42.676;23.320;2022-07-29T01:43:49;94855.03;;;18.46;100.00
38400;BME280;24180;42.676;23.320;2022-07-29T01:46:31;94856.59;;;18.62;100.00
38400;BME280;24180;42.676;23.320;2022-07-29T01:49:06;94855.69;;;18.69;100.00
38400;BME280;24180;42.676;23.320;2022-07-29T01:51:43;94857.63;;;18.61;100.00
38400;BME280;24180;42.676;23.320;2022-07-29T01:54:16;94858.38;;;18.55;100.00
38400;BME280;24180;42.676;23.320;2022-07-29T01:56:45;94848.94;;;18.60;100.00
38400;BME280;24180;42.676;23.320;2022-07-29T01:59:12;94853.19;;;18.61;100.00
38400;BME280;24180;42.676;23.320;2022-07-29T02:01:39;94852.19;;;18.62;100.00
38400;BME280;24180;42.676;23.320;2022-07-29T02:04:25;94834.22;;;18.59;100.00
38400;BME280;24180;42.676;23.320;2022-07-29T02:06:53;94848.41;;;18.72;100.00
38400;BME280;24180;42.676;23.320;2022-07-29T02:09:21;94839.13;;;18.69;100.00
38400;BME280;24180;42.676;23.320;2022-07-29T02:11:51;94833.66;;;18.70;100.00
38400;BME280;24180;42.676;23.320;2022-07-29T02:14:22;94837.53;;;18.75;100.00
38400;BME280;24180;42.676;23.320;2022-07-29T02:16:50;94839.56;;;18.73;100.00
38400;BME280;24180;42.676;23.320;2022-07-29T02:19:18;94830.91;;;18.79;100.00
38400;BME280;24180;42.676;23.320;2022-07-29T02:21:46;94833.13;;;18.82;100.00
38400;BME280;24180;42.676;23.320;2022-07-29T02:24:14;94837.25;;;18.91;100.00
38400;BME280;24180;42.676;23.320;2022-07-29T02:26:42;94833.22;;;18.95;100.00
38400;BME280;24180;42.676;23.320;2022-07-29T02:29:09;94828.19;;;18.93;100.00
38400;BME280;24180;42.676;23.320;2022-07-29T02:31:36;94830.16;;;18.85;100.00
38400;BME280;24180;42.676;23.320;2022-07-29T02:34:06;94835.25;;;18.93;100.00
38400;BME280;24180;42.676;23.320;2022-07-29T02:36:34;94816.66;;;18.88;100.00
38400;BME280;24180;42.676;23.320;2022-07-29T02:39:02;94824.75;;;18.93;100.00
38400;BME280;24180;42.676;23.320;2022-07-29T02:41:50;94823.97;;;18.99;100.00
38400;BME280;24180;42.676;23.320;2022-07-29T02:44:25;94815.50;;;18.97;100.00
38400;BME280;24180;42.676;23.320;2022-07-29T02:50:04;94792.06;;;18.95;100.00
38400;BME280;24180;42.676;23.320;2022-07-29T02:52:54;94809.44;;;18.96;100.00
38400;BME280;24180;42.676;23.320;2022-07-29T02:55:40;94813.88;;;18.96;100.00
38400;BME280;24180;42.676;23.320;2022-07-29T02:58:25;94813.69;;;18.97;100.00
38400;BME280;24180;42.676;23.320;2022-07-29T03:00:58;94811.78;;;18.85;100.00
38400;BME280;24180;42.676;23.320;2022-07-29T03:03:29;94816.00;;;18.86;100.00
38400;BME280;24180;42.676;23.320;2022-07-29T03:05:57;94808.06;;;18.73;100.00
38400;BME280;24180;42.676;23.320;2022-07-29T03:08:26;94808.22;;;18.64;100.00
38400;BME280;24180;42.676;23.320;2022-07-29T03:10:52;94808.75;;;18.53;100.00
38400;BME280;24180;42.676;23.320;2022-07-29T03:13:19;94813.72;;;18.48;100.00
38400;BME280;24180;42.676;23.320;2022-07-29T03:15:45;94801.34;;;18.42;100.00
38400;BME280;24180;42.676;23.320;2022-07-29T03:18:11;94800.06;;;18.32;100.00
38400;BME280;24180;42.676;23.320;2022-07-29T03:20:39;94797.03;;;18.28;100.00
38400;BME280;24180;42.676;23.320;2022-07-29T03:23:10;94797.59;;;18.23;100.00
38400;BME280;24180;42.676;23.320;2022-07-29T03:25:36;94804.75;;;18.15;100.00
38400;BME280;24180;42.676;23.320;2022-07-29T03:28:07;94804.94;;;18.13;100.00
38400;BME280;24180;42.676;23.320;2022-07-29T03:30:33;94819.28;;;18.17;100.00
38400;BME280;24180;42.676;23.320;2022-07-29T03:32:59;94814.88;;;18.18;100.00
38400;BME280;24180;42.676;23.320;2022-07-29T03:35:24;94826.53;;;18.15;100.00
38400;BME280;24180;42.676;23.320;2022-07-29T03:37:50;94826.84;;;18.27;100.00
38400;BME280;24180;42.676;23.320;2022-07-29T03:40:26;94809.56;;;18.11;100.00
38400;BME280;24180;42.676;23.320;2022-07-29T03:42:53;94814.25;;;18.16;100.00
38400;BME280;24180;42.676;23.320;2022-07-29T03:45:21;94813.63;;;18.14;100.00
38400;BME280;24180;42.676;23.320;2022-07-29T03:47:55;94821.34;;;18.22;100.00
38400;BME280;24180;42.676;23.320;2022-07-29T03:50:24;94826.09;;;18.33;100.00
38400;BME280;24180;42.676;23.320;2022-07-29T03:52:51;94828.09;;;18.31;100.00
38400;BME280;24180;42.676;23.320;2022-07-29T03:55:17;94823.97;;;18.22;100.00
38400;BME280;24180;42.676;23.320;2022-07-29T03:57:44;94819.41;;;18.31;100.00
38400;BME280;24180;42.676;23.320;2022-07-29T04:00:11;94847.69;;;18.35;100.00
38400;BME280;24180;42.676;23.320;2022-07-29T04:02:38;94827.91;;;18.33;100.00
38400;BME280;24180;42.676;23.320;2022-07-29T04:05:04;94840.13;;;18.47;100.00
38400;BME280;24180;42.676;23.320;2022-07-29T04:07:29;94839.19;;;18.54;100.00
38400;BME280;24180;42.676;23.320;2022-07-29T04:09:55;94838.63;;;18.59;100.00
38400;BME280;24180;42.676;23.320;2022-07-29T04:12:20;94846.19;;;18.68;100.00
38400;BME280;24180;42.676;23.320;2022-07-29T04:14:46;94838.75;;;18.72;100.00
38400;BME280;24180;42.676;23.320;2022-07-29T04:17:11;94843.84;;;18.80;100.00
38400;BME280;24180;42.676;23.320;2022-07-29T04:19:37;94838.31;;;18.96;100.00
38400;BME280;24180;42.676;23.320;2022-07-29T04:22:03;94835.31;;;19.06;100.00
38400;BME280;24180;42.676;23.320;2022-07-29T04:24:28;94836.13;;;19.06;100.00
38400;BME280;24180;42.676;23.320;2022-07-29T04:26:54;94852.53;;;19.15;100.00
38400;BME280;24180;42.676;23.320;2022-07-29T04:29:19;94838.03;;;19.19;100.00
38400;BME280;24180;42.676;23.320;2022-07-29T04:31:45;94841.28;;;19.21;100.00
38400;BME280;24180;42.676;23.320;2022-07-29T04:34:11;94846.72;;;19.26;100.00
38400;BME280;24180;42.676;23.320;2022-07-29T04:36:37;94863.69;;;19.24;100.00
38400;BME280;24180;42.676;23.320;2022-07-29T04:39:03;94864.53;;;19.31;100.00
38400;BME280;24180;42.676;23.320;2022-07-29T04:41:28;94864.44;;;19.45;100.00
38400;BME280;24180;42.676;23.320;2022-07-29T04:43:54;94861.84;;;19.45;100.00
38400;BME280;24180;42.676;23.320;2022-07-29T04:46:20;94871.16;;;19.54;100.00
38400;BME280;24180;42.676;23.320;2022-07-29T04:48:46;94871.84;;;19.70;100.00
38400;BME280;24180;42.676;23.320;2022-07-29T04:51:12;94872.25;;;19.73;100.00
38400;BME280;24180;42.676;23.320;2022-07-29T04:53:37;94868.06;;;19.85;100.00
38400;BME280;24180;42.676;23.320;2022-07-29T04:56:03;94872.50;;;19.91;100.00
38400;BME280;24180;42.676;23.320;2022-07-29T04:58:29;94881.44;;;20.03;100.00
38400;BME280;24180;42.676;23.320;2022-07-29T05:00:54;94880.66;;;20.09;100.00
38400;BME280;24180;42.676;23.320;2022-07-29T05:03:20;94867.28;;;20.11;100.00
38400;BME280;24180;42.676;23.320;2022-07-29T05:05:45;94867.28;;;20.11;100.00
38400;BME280;24180;42.676;23.320;2022-07-29T05:08:11;94886.34;;;20.26;100.00
38400;BME280;24180;42.676;23.320;2022-07-29T05:10:36;94886.78;;;20.43;100.00
38400;BME280;24180;42.676;23.320;2022-07-29T05:13:07;94889.25;;;20.51;100.00
38400;BME280;24180;42.676;23.320;2022-07-29T05:15:33;94882.78;;;20.53;100.00
38400;BME280;24180;42.676;23.320;2022-07-29T05:18:00;94888.84;;;20.61;100.00
38400;BME280;24180;42.676;23.320;2022-07-29T05:20:25;94896.75;;;20.74;100.00
38400;BME280;24180;42.676;23.320;2022-07-29T05:22:55;94898.78;;;20.85;100.00
38400;BME280;24180;42.676;23.320;2022-07-29T05:25:20;94893.72;;;20.90;100.00
38400;BME280;24180;42.676;23.320;2022-07-29T05:27:46;94896.94;;;21.05;100.00
38400;BME280;24180;42.676;23.320;2022-07-29T05:30:13;94893.91;;;21.08;100.00
38400;BME280;24180;42.676;23.320;2022-07-29T05:32:40;94891.28;;;21.15;100.00
38400;BME280;24180;42.676;23.320;2022-07-29T05:35:06;94900.97;;;21.27;100.00
38400;BME280;24180;42.676;23.320;2022-07-29T05:37:34;94897.13;;;21.36;100.00
38400;BME280;24180;42.676;23.320;2022-07-29T05:40:04;94899.75;;;21.50;100.00
38400;BME280;24180;42.676;23.320;2022-07-29T05:42:29;94893.19;;;21.59;100.00
38400;BME280;24180;42.676;23.320;2022-07-29T05:44:55;94905.56;;;21.65;100.00
38400;BME280;24180;42.676;23.320;2022-07-29T05:47:22;94915.69;;;21.74;100.00
38400;BME280;24180;42.676;23.320;2022-07-29T05:49:49;94909.38;;;21.75;100.00
38400;BME280;24180;42.676;23.320;2022-07-29T05:52:15;94924.34;;;21.88;100.00
38400;BME280;24180;42.676;23.320;2022-07-29T05:54:40;94919.47;;;21.98;100.00
38400;BME280;24180;42.676;23.320;2022-07-29T05:57:06;94919.00;;;22.14;100.00
38400;BME280;24180;42.676;23.320;2022-07-29T05:59:38;94924.19;;;22.27;100.00
38400;BME280;24180;42.676;23.320;2022-07-29T06:02:04;94928.59;;;22.40;100.00
38400;BME280;24180;42.676;23.320;2022-07-29T06:04:35;94926.25;;;22.57;100.00
38400;BME280;24180;42.676;23.320;2022-07-29T06:07:01;94923.63;;;22.57;100.00
38400;BME280;24180;42.676;23.320;2022-07-29T06:09:27;94925.56;;;22.74;100.00
38400;BME280;24180;42.676;23.320;2022-07-29T06:11:52;94918.13;;;22.90;100.00
38400;BME280;24180;42.676;23.320;2022-07-29T06:14:19;94920.97;;;22.88;100.00
38400;BME280;24180;42.676;23.320;2022-07-29T06:16:58;94915.97;;;23.05;100.00
38400;BME280;24180;42.676;23.320;2022-07-29T06:19:24;94924.38;;;23.20;100.00
38400;BME280;24180;42.676;23.320;2022-07-29T06:21:49;94924.25;;;23.33;100.00
38400;BME280;24180;42.676;23.320;2022-07-29T06:24:15;94922.00;;;23.37;100.00
38400;BME280;24180;42.676;23.320;2022-07-29T06:26:41;94922.59;;;23.39;100.00
38400;BME280;24180;42.676;23.320;2022-07-29T06:29:08;94933.81;;;23.59;100.00
38400;BME280;24180;42.676;23.320;2022-07-29T06:31:33;94922.78;;;23.62;100.00
38400;BME280;24180;42.676;23.320;2022-07-29T06:34:00;94936.44;;;23.77;100.00
38400;BME280;24180;42.676;23.320;2022-07-29T06:36:26;94916.91;;;23.78;100.00
38400;BME280;24180;42.676;23.320;2022-07-29T06:38:53;94926.53;;;23.91;100.00
38400;BME280;24180;42.676;23.320;2022-07-29T06:41:18;94921.00;;;23.92;100.00
38400;BME280;24180;42.676;23.320;2022-07-29T06:43:45;94920.00;;;23.93;100.00
38400;BME280;24180;42.676;23.320;2022-07-29T06:46:13;94912.94;;;24.05;100.00
38400;BME280;24180;42.676;23.320;2022-07-29T06:48:39;94926.16;;;24.23;100.00
38400;BME280;24180;42.676;23.320;2022-07-29T06:51:06;94914.31;;;24.26;100.00
38400;BME280;24180;42.676;23.320;2022-07-29T06:53:33;94923.03;;;24.45;100.00
38400;BME280;24180;42.676;23.320;2022-07-29T06:56:00;94912.34;;;24.51;100.00
38400;BME280;24180;42.676;23.320;2022-07-29T06:58:26;94922.84;;;24.58;100.00
38400;BME280;24180;42.676;23.320;2022-07-29T07:00:52;94915.59;;;24.65;100.00
38400;BME280;24180;42.676;23.320;2022-07-29T07:03:19;94925.56;;;24.81;100.00
38400;BME280;24180;42.676;23.320;2022-07-29T07:05:45;94913.03;;;24.88;100.00
38400;BME280;24180;42.676;23.320;2022-07-29T07:08:11;94911.69;;;24.97;100.00
38400;BME280;24180;42.676;23.320;2022-07-29T07:10:39;94902.84;;;25.03;100.00
38400;BME280;24180;42.676;23.320;2022-07-29T07:13:05;94920.56;;;25.14;100.00
38400;BME280;24180;42.676;23.320;2022-07-29T07:15:40;94893.81;;;25.28;100.00
38400;BME280;24180;42.676;23.320;2022-07-29T07:18:06;94909.16;;;25.49;100.00
38400;BME280;24180;42.676;23.320;2022-07-29T07:20:34;94914.03;;;25.64;100.00
38400;BME280;24180;42.676;23.320;2022-07-29T07:22:59;94919.09;;;25.65;100.00
38400;BME280;24180;42.676;23.320;2022-07-29T07:25:25;94907.66;;;25.76;100.00
38400;BME280;24180;42.676;23.320;2022-07-29T07:27:51;94916.66;;;25.87;100.00
38400;BME280;24180;42.676;23.320;2022-07-29T07:30:16;94904.88;;;25.94;100.00
38400;BME280;24180;42.676;23.320;2022-07-29T07:32:42;94906.56;;;26.00;100.00
38400;BME280;24180;42.676;23.320;2022-07-29T07:35:10;94907.72;;;26.04;100.00
38400;BME280;24180;42.676;23.320;2022-07-29T07:37:37;94905.34;;;25.91;100.00
38400;BME280;24180;42.676;23.320;2022-07-29T07:40:04;94909.72;;;25.86;100.00
38400;BME280;24180;42.676;23.320;2022-07-29T07:42:30;94909.94;;;25.84;100.00
38400;BME280;24180;42.676;23.320;2022-07-29T07:44:55;94911.44;;;25.80;100.00
38400;BME280;24180;42.676;23.320;2022-07-29T07:47:21;94913.34;;;26.08;100.00
38400;BME280;24180;42.676;23.320;2022-07-29T07:49:50;94911.94;;;26.29;100.00
38400;BME280;24180;42.676;23.320;2022-07-29T07:52:17;94911.22;;;26.33;100.00
38400;BME280;24180;42.676;23.320;2022-07-29T07:54:43;94918.00;;;26.41;100.00
38400;BME280;24180;42.676;23.320;2022-07-29T07:57:11;94912.31;;;26.49;100.00
38400;BME280;24180;42.676;23.320;2022-07-29T07:59:38;94917.72;;;26.54;100.00
38400;BME280;24180;42.676;23.320;2022-07-29T08:02:05;94910.19;;;26.63;100.00
38400;BME280;24180;42.676;23.320;2022-07-29T08:04:31;94899.59;;;26.79;100.00
38400;BME280;24180;42.676;23.320;2022-07-29T08:06:58;94898.06;;;26.83;100.00
38400;BME280;24180;42.676;23.320;2022-07-29T08:09:26;94907.03;;;26.94;100.00
38400;BME280;24180;42.676;23.320;2022-07-29T08:11:52;94897.84;;;27.02;100.00
38400;BME280;24180;42.676;23.320;2022-07-29T08:14:18;94905.00;;;27.18;100.00
38400;BME280;24180;42.676;23.320;2022-07-29T08:16:44;94888.03;;;27.19;100.00
38400;BME280;24180;42.676;23.320;2022-07-29T08:19:10;94906.03;;;27.33;100.00
38400;BME280;24180;42.676;23.320;2022-07-29T08:21:36;94913.13;;;27.44;98.44
38400;BME280;24180;42.676;23.320;2022-07-29T08:24:05;94905.50;;;27.48;96.18
38400;BME280;24180;42.676;23.320;2022-07-29T08:26:49;94891.78;;;27.56;93.14
38400;BME280;24180;42.676;23.320;2022-07-29T08:29:15;94896.63;;;27.59;95.29
38400;BME280;24180;42.676;23.320;2022-07-29T08:31:41;94894.88;;;27.70;95.15
38400;BME280;24180;42.676;23.320;2022-07-29T08:34:07;94900.53;;;27.95;90.97
38400;BME280;24180;42.676;23.320;2022-07-29T08:36:33;94888.97;;;28.06;89.45
38400;BME280;24180;42.676;23.320;2022-07-29T08:39:01;94894.00;;;28.24;86.45
38400;BME280;24180;42.676;23.320;2022-07-29T08:41:27;94898.19;;;28.42;84.47
38400;BME280;24180;42.676;23.320;2022-07-29T08:43:53;94897.66;;;28.45;83.77
38400;BME280;24180;42.676;23.320;2022-07-29T08:46:19;94898.31;;;28.52;82.15
38400;BME280;24180;42.676;23.320;2022-07-29T08:48:46;94898.25;;;28.47;81.25
38400;BME280;24180;42.676;23.320;2022-07-29T08:51:17;94892.84;;;28.42;82.48
38400;BME280;24180;42.676;23.320;2022-07-29T08:53:47;94895.97;;;28.61;76.84
38400;BME280;24180;42.676;23.320;2022-07-29T08:56:19;94895.97;;;28.61;78.45
38400;BME280;24180;42.676;23.320;2022-07-29T08:58:46;94876.06;;;28.68;79.18
38400;BME280;24180;42.676;23.320;2022-07-29T09:01:17;94891.31;;;29.00;73.93
38400;BME280;24180;42.676;23.320;2022-07-29T09:03:46;94886.59;;;29.12;69.92
38400;BME280;24180;42.676;23.320;2022-07-29T09:06:15;94882.19;;;29.27;68.44
38400;BME280;24180;42.676;23.320;2022-07-29T09:08:42;94881.47;;;29.37;69.08
38400;BME280;24180;42.676;23.320;2022-07-29T09:11:08;94885.69;;;29.33;66.84
38400;BME280;24180;42.676;23.320;2022-07-29T09:13:35;94873.78;;;29.09;67.63
38400;BME280;24180;42.676;23.320;2022-07-29T09:16:00;94885.06;;;28.89;70.50
38400;BME280;24180;42.676;23.320;2022-07-29T09:18:37;94885.75;;;28.74;71.96
38400;BME280;24180;42.676;23.320;2022-07-29T09:21:06;94879.59;;;29.06;66.40
38400;BME280;24180;42.676;23.320;2022-07-29T09:24:13;94880.69;;;29.42;64.90
38400;BME280;24180;42.676;23.320;2022-07-29T09:26:40;94882.72;;;29.66;62.79
38400;BME280;24180;42.676;23.320;2022-07-29T09:29:18;94877.19;;;29.83;60.16
38400;BME280;24180;42.676;23.320;2022-07-29T09:31:49;94879.16;;;29.98;59.21
38400;BME280;24180;42.676;23.320;2022-07-29T09:34:22;94880.78;;;30.04;59.14
38400;BME280;24180;42.676;23.320;2022-07-29T09:36:49;94870.97;;;30.19;59.37
38400;BME280;24180;42.676;23.320;2022-07-29T09:39:26;94876.09;;;30.36;56.55
38400;BME280;24180;42.676;23.320;2022-07-29T09:41:55;94861.91;;;30.31;57.83
38400;BME280;24180;42.676;23.320;2022-07-29T09:44:23;94870.22;;;30.39;57.96
38400;BME280;24180;42.676;23.320;2022-07-29T09:47:03;94875.38;;;30.66;57.92
38400;BME280;24180;42.676;23.320;2022-07-29T09:49:35;94869.53;;;30.89;57.42
38400;BME280;24180;42.676;23.320;2022-07-29T09:52:09;94862.31;;;31.00;56.26
38400;BME280;24180;42.676;23.320;2022-07-29T09:54:36;94861.53;;;31.04;55.93
38400;BME280;24180;42.676;23.320;2022-07-29T09:57:05;94859.63;;;31.20;54.52
38400;BME280;24180;42.676;23.320;2022-07-29T09:59:32;94856.38;;;31.43;53.40
38400;BME280;24180;42.676;23.320;2022-07-29T10:01:58;94853.44;;;31.65;52.47
38400;BME280;24180;42.676;23.320;2022-07-29T10:04:36;94853.47;;;31.30;50.46
38400;BME280;24180;42.676;23.320;2022-07-29T10:07:02;94851.31;;;31.22;52.94
38400;BME280;24180;42.676;23.320;2022-07-29T10:09:30;94848.59;;;31.67;51.68
38400;BME280;24180;42.676;23.320;2022-07-29T10:12:10;94841.13;;;31.54;51.36
38400;BME280;24180;42.676;23.320;2022-07-29T10:14:37;94840.50;;;31.82;49.29
38400;BME280;24180;42.676;23.320;2022-07-29T10:17:05;94825.69;;;32.54;48.75
38400;BME280;24180;42.676;23.320;2022-07-29T10:19:37;94841.34;;;33.96;45.92
38400;BME280;24180;42.676;23.320;2022-07-29T10:22:05;94827.09;;;36.27;39.88
38400;BME280;24180;42.676;23.320;2022-07-29T10:24:32;94828.13;;;38.44;35.69
38400;BME280;24180;42.676;23.320;2022-07-29T10:27:00;94821.44;;;40.41;31.93
38400;BME280;24180;42.676;23.320;2022-07-29T10:29:26;94825.06;;;41.28;28.87
38400;BME280;24180;42.676;23.320;2022-07-29T10:40:34;94815.03;;;43.14;25.92
38400;BME280;24180;42.676;23.320;2022-07-29T10:43:27;94808.19;;;44.42;24.53
38400;BME280;24180;42.676;23.320;2022-07-29T10:45:59;94788.88;;;45.27;23.32
38400;BME280;24180;42.676;23.320;2022-07-29T10:48:25;94799.25;;;44.60;23.92
38400;BME280;24180;42.676;23.320;2022-07-29T10:51:04;94797.47;;;46.43;22.40
38400;BME280;24180;42.676;23.320;2022-07-29T10:53:50;94792.56;;;47.15;21.51
38400;BME280;24180;42.676;23.320;2022-07-29T10:56:29;94790.47;;;47.02;21.37
38400;BME280;24180;42.676;23.320;2022-07-29T11:01:47;94777.97;;;47.41;21.17
38400;BME280;24180;42.676;23.320;2022-07-29T11:04:13;94790.72;;;47.23;21.02
38400;BME280;24180;42.676;23.320;2022-07-29T11:09:27;94775.53;;;48.24;20.41
38400;BME280;24180;42.676;23.320;2022-07-29T11:11:55;94773.88;;;48.09;20.44
38400;BME280;24180;42.676;23.320;2022-07-29T11:17:23;94765.53;;;49.53;19.33
38400;BME280;24180;42.676;23.320;2022-07-29T11:19:48;94774.16;;;49.48;18.90
38400;BME280;24180;42.676;23.320;2022-07-29T11:22:34;94772.25;;;48.62;19.25
38400;BME280;24180;42.676;23.320;2022-07-29T11:25:15;94772.59;;;50.36;18.10
38400;BME280;24180;42.676;23.320;2022-07-29T11:27:40;94765.03;;;50.65;17.93
38400;BME280;24180;42.676;23.320;2022-07-29T11:30:07;94769.09;;;49.75;18.19
38400;BME280;24180;42.676;23.320;2022-07-29T11:32:39;94768.28;;;49.60;18.63
38400;BME280;24180;42.676;23.320;2022-07-29T11:35:18;94770.25;;;50.34;18.27
38400;BME280;24180;42.676;23.320;2022-07-29T11:37:46;94776.06;;;50.72;17.56
38400;BME280;24180;42.676;23.320;2022-07-29T11:40:14;94770.94;;;50.77;17.67
38400;BME280;24180;42.676;23.320;2022-07-29T11:42:42;94762.41;;;48.54;18.79
38400;BME280;24180;42.676;23.320;2022-07-29T11:47:46;94755.72;;;49.59;18.45
38400;BME280;24180;42.676;23.320;2022-07-29T11:50:15;94759.63;;;50.43;17.41
38400;BME280;24180;42.676;23.320;2022-07-29T11:52:43;94758.34;;;46.72;20.26
38400;BME280;24180;42.676;23.320;2022-07-29T11:55:14;94759.81;;;43.45;22.43
38400;BME280;24180;42.676;23.320;2022-07-29T11:57:52;94754.13;;;42.94;23.20
38400;BME280;24180;42.676;23.320;2022-07-29T12:00:27;94752.28;;;45.35;22.15
38400;BME280;24180;42.676;23.320;2022-07-29T12:02:53;94749.50;;;44.70;21.96
38400;BME280;24180;42.676;23.320;2022-07-29T12:05:19;94754.41;;;47.03;20.20
38400;BME280;24180;42.676;23.320;2022-07-29T12:07:46;94740.16;;;48.12;19.32
38400;BME280;24180;42.676;23.320;2022-07-29T12:10:12;94753.38;;;45.50;20.75
38400;BME280;24180;42.676;23.320;2022-07-29T12:12:38;94751.91;;;47.58;19.84
38400;BME280;24180;42.676;23.320;2022-07-29T12:15:14;94743.88;;;48.41;18.90
38400;BME280;24180;42.676;23.320;2022-07-29T12:17:40;94750.03;;;50.87;17.45
38400;BME280;24180;42.676;23.320;2022-07-29T12:20:07;94741.28;;;52.16;16.49
38400;BME280;24180;42.676;23.320;2022-07-29T12:22:37;94757.56;;;51.56;16.45
38400;BME280;24180;42.676;23.320;2022-07-29T12:25:10;94757.94;;;47.37;19.46
38400;BME280;24180;42.676;23.320;2022-07-29T12:27:37;94751.19;;;48.19;18.77
38400;BME280;24180;42.676;23.320;2022-07-29T12:30:15;94753.00;;;47.53;19.46
38400;BME280;24180;42.676;23.320;2022-07-29T12:32:48;94748.56;;;48.33;19.05
38400;BME280;24180;42.676;23.320;2022-07-29T12:35:18;94745.94;;;51.20;17.62
38400;BME280;24180;42.676;23.320;2022-07-29T12:37:46;94747.41;;;52.34;16.31
38400;BME280;24180;42.676;23.320;2022-07-29T12:40:17;94734.13;;;48.50;18.42
38400;BME280;24180;42.676;23.320;2022-07-29T12:43:19;94737.63;;;49.94;17.47
38400;BME280;24180;42.676;23.320;2022-07-29T12:45:47;94740.31;;;51.34;16.94
38400;BME280;24180;42.676;23.320;2022-07-29T12:48:14;94742.25;;;51.37;16.83
38400;BME280;24180;42.676;23.320;2022-07-29T12:51:00;94734.16;;;51.05;17.32
38400;BME280;24180;42.676;23.320;2022-07-29T12:53:27;94733.97;;;51.44;16.72
38400;BME280;24180;42.676;23.320;2022-07-29T12:55:54;94732.75;;;52.37;16.05
38400;BME280;24180;42.676;23.320;2022-07-29T12:58:35;94718.19;;;51.41;16.04
38400;BME280;24180;42.676;23.320;2022-07-29T13:03:56;94721.81;;;53.25;15.58
38400;BME280;24180;42.676;23.320;2022-07-29T13:09:00;94717.09;;;53.99;14.95
38400;BME280;24180;42.676;23.320;2022-07-29T13:11:38;94720.50;;;53.37;14.93
38400;BME280;24180;42.676;23.320;2022-07-29T13:14:06;94710.38;;;52.62;15.15
38400;BME280;24180;42.676;23.320;2022-07-29T13:16:31;94706.72;;;53.30;14.78
38400;BME280;24180;42.676;23.320;2022-07-29T13:19:08;94710.38;;;54.43;14.70
38400;BME280;24180;42.676;23.320;2022-07-29T13:21:34;94703.31;;;55.82;14.31
38400;BME280;24180;42.676;23.320;2022-07-29T13:24:02;94708.75;;;55.57;14.07
38400;BME280;24180;42.676;23.320;2022-07-29T13:26:28;94704.81;;;51.39;15.65